Time;durP1;ratioP1;P1;durP2;ratioP2;P2;SDS_P1;SDS_P2;PMS_P1;PMS_P2;Temp;Humidity;BMP_temperature;BMP_pressure;BME280_temperature;BME280_humidity;BME280_pressure;Samples;Min_cycle;Max_cycle;Signal;HPM_P1;HPM_P2
2023/04/25 00:02:12;;;;;;;5.80;3.30;;;8.00;99.90;;;;;;4994306;28;20580;-75
2023/04/25 00:04:40;;;;;;;5.20;2.90;;;8.00;99.90;;;;;;5002999;28;20514;-74
2023/04/25 00:07:19;;;;;;;4.17;2.47;;;8.00;99.90;;;;;;5004204;28;20523;-72
2023/04/25 00:09:46;;;;;;;3.63;2.03;;;7.90;99.90;;;;;;4996498;28;20463;-73
2023/04/25 00:12:13;;;;;;;12.40;2.53;;;7.90;99.90;;;;;;4996850;28;20548;-73
2023/04/25 00:14:41;;;;;;;4.87;2.30;;;8.00;99.90;;;;;;5000264;28;20542;-74
2023/04/25 00:17:12;;;;;;;2.00;1.80;;;8.10;99.90;;;;;;4998065;28;20549;-74
2023/04/25 00:19:40;;;;;;;2.50;1.50;;;8.10;99.90;;;;;;4996928;28;20458;-73
2023/04/25 00:22:07;;;;;;;5.07;3.87;;;8.00;99.90;;;;;;5003138;28;20544;-72
2023/04/25 00:24:36;;;;;;;3.57;2.17;;;8.10;99.90;;;;;;5005943;28;20465;-74
2023/04/25 00:27:05;;;;;;;3.83;2.13;;;8.10;99.90;;;;;;4998470;28;20552;-76
2023/04/25 00:29:32;;;;;;;5.20;2.50;;;8.00;99.90;;;;;;4996695;28;20456;-74
2023/04/25 00:32:00;;;;;;;7.33;2.43;;;8.00;99.90;;;;;;5004375;28;20913;-74
2023/04/25 00:34:27;;;;;;;7.10;2.97;;;8.00;99.90;;;;;;5004443;28;21036;-73
2023/04/25 00:36:57;;;;;;;3.10;2.10;;;8.10;99.90;;;;;;5000985;28;20531;-74
2023/04/25 00:39:28;;;;;;;4.23;2.80;;;8.10;99.90;;;;;;5002589;28;20469;-73
2023/04/25 00:41:56;;;;;;;4.97;2.50;;;8.10;99.90;;;;;;5010009;28;20465;-74
2023/04/25 00:44:26;;;;;;;3.87;2.70;;;8.00;99.90;;;;;;5026192;28;20500;-72
2023/04/25 00:46:54;;;;;;;4.60;2.97;;;8.10;99.90;;;;;;5016820;28;20845;-73
2023/04/25 00:49:22;;;;;;;3.10;2.87;;;8.20;99.90;;;;;;5005265;28;20586;-73
2023/04/25 00:51:49;;;;;;;8.97;3.87;;;8.20;99.90;;;;;;5008814;28;20585;-73
2023/04/25 00:54:18;;;;;;;3.10;2.40;;;8.20;99.90;;;;;;5011310;28;20859;-74
2023/04/25 00:56:46;;;;;;;5.47;2.90;;;8.30;99.90;;;;;;5004763;28;20519;-72
2023/04/25 00:59:14;;;;;;;6.70;3.27;;;8.20;99.90;;;;;;4972923;28;21119;-74
2023/04/25 01:01:42;;;;;;;9.47;2.63;;;8.20;99.90;;;;;;5008037;28;20511;-75
2023/04/25 01:04:10;;;;;;;3.20;2.70;;;8.30;99.90;;;;;;5012644;28;20459;-74
2023/04/25 01:06:37;;;;;;;3.10;1.60;;;8.20;99.90;;;;;;5002087;28;20927;-75
2023/04/25 01:09:04;;;;;;;3.60;1.90;;;8.20;99.90;;;;;;5006657;28;20475;-74
2023/04/25 01:11:33;;;;;;;4.03;1.97;;;8.20;99.90;;;;;;5005790;28;20437;-74
2023/04/25 01:14:01;;;;;;;2.97;2.77;;;8.20;99.90;;;;;;5004661;28;20451;-74
2023/04/25 01:16:29;;;;;;;4.17;2.90;;;8.30;99.90;;;;;;5000829;28;20446;-74
2023/04/25 01:18:58;;;;;;;3.00;2.07;;;8.30;99.90;;;;;;5013406;28;20459;-71
2023/04/25 01:21:29;;;;;;;5.23;2.47;;;8.30;99.90;;;;;;5010366;28;20532;-75
2023/04/25 01:23:56;;;;;;;4.67;2.43;;;8.30;99.90;;;;;;5005645;28;20560;-74
2023/04/25 01:26:25;;;;;;;3.27;2.27;;;8.10;99.90;;;;;;5006109;28;20485;-75
2023/04/25 01:28:52;;;;;;;2.00;1.50;;;8.20;99.90;;;;;;5002106;28;20478;-75
2023/04/25 01:31:20;;;;;;;3.10;2.17;;;8.20;99.90;;;;;;5006293;28;21274;-75
2023/04/25 01:33:48;;;;;;;6.13;3.10;;;8.30;99.90;;;;;;5008125;28;20551;-74
2023/04/25 01:36:17;;;;;;;6.63;2.37;;;8.30;99.90;;;;;;5007223;28;20483;-73
2023/04/25 01:38:47;;;;;;;3.63;2.73;;;8.40;99.90;;;;;;5010622;28;20450;-73
2023/04/25 01:41:16;;;;;;;4.40;3.00;;;8.20;99.90;;;;;;5001581;28;20511;-71
2023/04/25 01:43:44;;;;;;;4.97;2.00;;;8.20;99.90;;;;;;4996020;28;20448;-72
2023/04/25 01:46:12;;;;;;;5.37;2.43;;;8.10;99.90;;;;;;5005728;28;20437;-77
2023/04/25 01:48:41;;;;;;;9.07;3.27;;;8.10;99.90;;;;;;4972171;28;20499;-74
2023/04/25 01:51:09;;;;;;;2.57;1.57;;;8.30;99.90;;;;;;5009685;28;20461;-73
2023/04/25 01:53:35;;;;;;;5.20;2.57;;;8.30;99.90;;;;;;5008946;28;20536;-74
2023/04/25 01:56:08;;;;;;;2.63;2.03;;;8.30;99.90;;;;;;5005633;28;20549;-74
2023/04/25 01:58:36;;;;;;;4.30;1.80;;;8.30;99.90;;;;;;5006004;28;20476;-73
2023/04/25 02:01:03;;;;;;;2.10;1.40;;;8.20;99.90;;;;;;5004402;28;20476;-74
2023/04/25 02:03:32;;;;;;;6.23;3.43;;;8.30;99.90;;;;;;5002715;28;20464;-73
2023/04/25 02:05:59;;;;;;;3.83;2.40;;;8.20;99.90;;;;;;5002467;28;20467;-74
2023/04/25 02:08:27;;;;;;;2.80;2.03;;;8.20;99.90;;;;;;5010733;28;20461;-74
2023/04/25 02:10:54;;;;;;;4.97;2.17;;;8.20;99.90;;;;;;5002384;28;20481;-74
2023/04/25 02:13:23;;;;;;;2.80;1.83;;;8.20;99.90;;;;;;5002880;28;20561;-74
2023/04/25 02:15:50;;;;;;;6.30;3.47;;;8.10;99.90;;;;;;5001870;28;20471;-74
2023/04/25 02:18:17;;;;;;;3.03;2.20;;;8.10;99.90;;;;;;5013573;28;20461;-75
2023/04/25 02:20:46;;;;;;;6.03;1.93;;;8.20;99.90;;;;;;5010945;28;20472;-74
2023/04/25 02:23:15;;;;;;;12.43;2.60;;;8.30;99.90;;;;;;5016471;28;20476;-75
2023/04/25 02:25:42;;;;;;;4.43;1.87;;;8.10;99.90;;;;;;5011050;28;20430;-75
2023/04/25 02:28:10;;;;;;;4.17;2.30;;;8.20;99.90;;;;;;5001005;28;20465;-75
2023/04/25 02:30:40;;;;;;;5.43;2.63;;;8.20;99.90;;;;;;4973782;28;20829;-72
2023/04/25 02:33:07;;;;;;;3.77;2.63;;;8.30;99.90;;;;;;4983699;28;20510;-74
2023/04/25 02:35:34;;;;;;;8.73;3.00;;;8.30;99.90;;;;;;4966987;28;20445;-74
2023/04/25 02:38:03;;;;;;;6.13;3.50;;;8.20;99.90;;;;;;5020378;28;20441;-73
2023/04/25 02:40:30;;;;;;;12.10;2.93;;;8.20;99.90;;;;;;5012510;28;20495;-75
2023/04/25 02:42:57;;;;;;;7.23;3.30;;;8.10;99.90;;;;;;5007411;28;20488;-76
2023/04/25 02:45:24;;;;;;;7.70;3.10;;;8.20;99.90;;;;;;5005264;28;21051;-75
2023/04/25 02:47:53;;;;;;;7.87;3.33;;;8.20;99.90;;;;;;5002229;28;20580;-76
2023/04/25 02:50:20;;;;;;;5.60;3.90;;;8.30;99.90;;;;;;5011919;28;20564;-76
2023/04/25 02:52:49;;;;;;;3.73;2.20;;;8.30;99.90;;;;;;5000304;28;20820;-75
2023/04/25 02:55:18;;;;;;;5.50;2.77;;;8.20;99.90;;;;;;4986473;28;20792;-76
2023/04/25 02:57:46;;;;;;;3.20;2.70;;;8.20;99.90;;;;;;5013519;28;20447;-75
2023/04/25 03:00:16;;;;;;;4.27;2.60;;;8.10;99.90;;;;;;5007147;28;20540;-75
2023/04/25 03:02:43;;;;;;;5.83;2.90;;;8.10;99.90;;;;;;4989161;28;21003;-75
2023/04/25 03:05:12;;;;;;;5.97;3.50;;;8.10;99.90;;;;;;5007357;28;20569;-74
2023/04/25 03:07:40;;;;;;;3.37;3.03;;;8.10;99.90;;;;;;5010244;28;20545;-75
2023/04/25 03:10:08;;;;;;;6.23;3.20;;;8.10;99.90;;;;;;5008582;28;20478;-75
2023/04/25 03:12:35;;;;;;;12.03;4.07;;;8.00;99.90;;;;;;5005291;28;20456;-75
2023/04/25 03:15:02;;;;;;;9.60;3.57;;;7.80;99.90;;;;;;5015102;28;20499;-76
2023/04/25 03:17:29;;;;;;;5.70;3.20;;;7.80;99.90;;;;;;5007120;28;20469;-75
2023/04/25 03:19:56;;;;;;;5.73;2.77;;;7.80;99.90;;;;;;5004398;28;20519;-74
2023/04/25 03:22:25;;;;;;;3.63;2.40;;;8.00;99.90;;;;;;4992463;28;20949;-75
2023/04/25 03:24:52;;;;;;;3.13;2.53;;;7.90;99.90;;;;;;5008200;28;20492;-75
2023/04/25 03:27:21;;;;;;;5.97;2.37;;;8.00;99.90;;;;;;5006656;28;20471;-74
2023/04/25 03:29:49;;;;;;;9.40;2.67;;;8.00;99.90;;;;;;5003492;28;20452;-75
2023/04/25 03:32:15;;;;;;;3.13;2.17;;;8.00;99.90;;;;;;5012187;28;21067;-74
2023/04/25 03:34:42;;;;;;;10.00;3.07;;;7.90;99.90;;;;;;5012018;28;20560;-75
2023/04/25 03:37:10;;;;;;;5.13;2.53;;;7.90;99.90;;;;;;5005591;28;20519;-75
2023/04/25 03:39:38;;;;;;;4.57;2.57;;;7.90;99.90;;;;;;5009235;28;20553;-75
2023/04/25 03:42:05;;;;;;;5.80;1.93;;;7.90;99.90;;;;;;5007073;28;20463;-75
2023/04/25 03:44:32;;;;;;;9.63;2.97;;;7.80;99.90;;;;;;5009465;28;20528;-75
2023/04/25 03:47:00;;;;;;;5.23;3.03;;;7.90;99.90;;;;;;5003137;28;20629;-75
2023/04/25 03:49:28;;;;;;;3.37;2.40;;;7.70;99.90;;;;;;5009036;28;20486;-76
2023/04/25 03:51:55;;;;;;;5.53;3.07;;;7.80;99.90;;;;;;5007908;28;20464;-74
2023/04/25 03:54:26;;;;;;;2.60;1.73;;;7.40;99.90;;;;;;5006078;28;20484;-75
2023/04/25 03:56:55;;;;;;;2.33;1.90;;;7.30;99.90;;;;;;4994286;28;20435;-75
2023/04/25 03:59:23;;;;;;;5.43;1.90;;;7.20;99.90;;;;;;5013461;28;20481;-70
2023/04/25 04:01:53;;;;;;;8.00;2.40;;;7.00;99.90;;;;;;5005089;28;20592;-71
2023/04/25 04:04:20;;;;;;;10.67;2.17;;;7.00;99.90;;;;;;4999590;28;20460;-72
2023/04/25 04:06:47;;;;;;;2.13;1.90;;;7.00;99.90;;;;;;5007036;28;20465;-74
2023/04/25 04:09:14;;;;;;;4.23;1.83;;;6.90;99.90;;;;;;5001571;28;20856;-74
2023/04/25 04:11:45;;;;;;;3.70;2.90;;;6.90;99.90;;;;;;5001086;28;20564;-74
2023/04/25 04:14:16;;;;;;;2.90;2.00;;;7.00;99.90;;;;;;4999982;28;20456;-75
2023/04/25 04:16:44;;;;;;;4.60;1.97;;;7.10;99.90;;;;;;5007531;28;20559;-76
2023/04/25 04:19:14;;;;;;;2.60;2.40;;;7.20;99.90;;;;;;5005606;28;21273;-74
2023/04/25 04:21:43;;;;;;;3.13;1.60;;;7.10;99.90;;;;;;4997810;28;20445;-75
2023/04/25 04:24:12;;;;;;;8.40;2.00;;;7.00;99.90;;;;;;5006574;28;20531;-75
2023/04/25 04:26:40;;;;;;;2.50;1.37;;;7.00;99.90;;;;;;5010171;28;21295;-74
2023/04/25 04:29:09;;;;;;;8.30;2.27;;;7.30;99.90;;;;;;5009854;28;20532;-73
2023/04/25 04:31:40;;;;;;;4.93;2.93;;;7.30;99.90;;;;;;5009685;28;20470;-74
2023/04/25 04:34:07;;;;;;;2.80;2.50;;;7.30;99.90;;;;;;5008417;28;20467;-74
2023/04/25 04:36:36;;;;;;;5.20;2.13;;;7.40;99.90;;;;;;5010681;28;20859;-74
2023/04/25 04:39:03;;;;;;;2.83;2.33;;;7.40;99.90;;;;;;5003310;28;20484;-75
2023/04/25 04:44:32;;;;;;;2.70;1.90;;;7.50;99.90;;;;;;4985330;28;20478;-75
2023/04/25 04:50:44;;;;;;;8.47;2.70;;;7.40;99.90;;;;;;4982277;28;22133;-75
2023/04/25 04:53:11;;;;;;;6.37;1.80;;;7.40;99.90;;;;;;5004013;28;20447;-75
2023/04/25 04:55:39;;;;;;;4.70;2.23;;;7.20;99.90;;;;;;5009257;28;20436;-76
2023/04/25 04:58:07;;;;;;;4.90;1.80;;;7.20;99.90;;;;;;5003083;28;20451;-75
2023/04/25 05:00:34;;;;;;;6.50;3.30;;;7.10;99.90;;;;;;5022214;28;20469;-75
2023/04/25 05:03:02;;;;;;;3.63;2.20;;;7.10;99.90;;;;;;5009573;28;20551;-75
2023/04/25 05:05:30;;;;;;;4.80;1.47;;;7.00;99.90;;;;;;5005502;28;20493;-75
2023/04/25 05:08:00;;;;;;;4.90;2.80;;;7.00;99.90;;;;;;5007190;28;20510;-75
2023/04/25 05:10:27;;;;;;;5.93;2.43;;;7.00;99.90;;;;;;5001973;28;20452;-74
2023/04/25 05:12:54;;;;;;;3.67;2.40;;;6.90;99.90;;;;;;4994277;28;20448;-74
2023/04/25 05:15:24;;;;;;;6.77;2.40;;;7.00;99.90;;;;;;5007648;28;20556;-75
2023/04/25 05:17:53;;;;;;;10.43;2.83;;;7.10;99.90;;;;;;5003768;28;20969;-75
2023/04/25 05:20:25;;;;;;;3.83;2.63;;;7.10;99.90;;;;;;5010129;28;20491;-75
2023/04/25 05:22:54;;;;;;;6.13;3.20;;;7.30;99.90;;;;;;4997097;28;20492;-74
2023/04/25 05:25:21;;;;;;;8.13;2.87;;;7.30;99.90;;;;;;4976834;28;20430;-73
2023/04/25 05:27:52;;;;;;;9.33;2.10;;;7.50;99.90;;;;;;5018378;28;20440;-76
2023/04/25 05:30:19;;;;;;;6.77;2.60;;;7.80;99.90;;;;;;5010257;28;20547;-75
2023/04/25 05:32:46;;;;;;;6.53;2.00;;;7.90;99.90;;;;;;4992229;28;20488;-74
2023/04/25 05:35:13;;;;;;;3.83;2.33;;;8.00;99.90;;;;;;5013942;28;20444;-76
2023/04/25 05:37:41;;;;;;;3.00;2.00;;;8.00;99.90;;;;;;5018396;28;20464;-75
2023/04/25 05:40:11;;;;;;;3.00;2.27;;;7.90;99.90;;;;;;5010701;28;20485;-72
2023/04/25 05:42:38;;;;;;;4.23;2.37;;;7.90;99.90;;;;;;5011208;28;20456;-75
2023/04/25 05:45:06;;;;;;;4.63;2.53;;;7.80;99.90;;;;;;5001366;28;20519;-76
2023/04/25 05:47:33;;;;;;;7.93;2.90;;;7.80;99.90;;;;;;5005780;28;20447;-74
2023/04/25 05:50:02;;;;;;;9.90;5.47;;;7.80;99.90;;;;;;5003340;28;20485;-76
2023/04/25 05:52:31;;;;;;;7.80;3.33;;;7.90;99.90;;;;;;5003382;28;21095;-76
2023/04/25 05:54:58;;;;;;;5.00;2.83;;;8.00;99.90;;;;;;5000620;28;20528;-73
2023/04/25 05:57:28;;;;;;;11.13;4.10;;;8.00;99.90;;;;;;5004167;28;20436;-75
2023/04/25 05:59:55;;;;;;;3.67;2.20;;;8.10;99.90;;;;;;4997288;28;20436;-75
2023/04/25 06:02:32;;;;;;;3.10;2.27;;;8.20;99.90;;;;;;4996926;28;20547;-76
2023/04/25 06:05:03;;;;;;;3.47;2.10;;;8.20;99.90;;;;;;4993535;28;20477;-75
2023/04/25 06:07:30;;;;;;;6.43;3.20;;;8.30;99.90;;;;;;5002460;28;20455;-74
2023/04/25 06:09:59;;;;;;;5.03;3.70;;;8.20;99.90;;;;;;5006838;28;20465;-72
2023/04/25 06:12:28;;;;;;;7.60;2.90;;;8.10;99.90;;;;;;5002912;28;20501;-74
2023/04/25 06:14:55;;;;;;;3.63;2.67;;;8.00;99.90;;;;;;5004581;28;20497;-75
2023/04/25 06:17:22;;;;;;;3.97;3.13;;;8.10;99.90;;;;;;4987807;28;20454;-74
2023/04/25 06:19:49;;;;;;;8.30;3.03;;;8.10;99.90;;;;;;5001926;28;20428;-72
2023/04/25 06:22:16;;;;;;;5.43;2.50;;;8.10;99.90;;;;;;5009225;28;20468;-72
2023/04/25 06:24:43;;;;;;;4.63;3.37;;;8.20;99.90;;;;;;5022616;28;20532;-77
2023/04/25 06:27:11;;;;;;;3.30;2.70;;;8.30;99.90;;;;;;5006681;28;20969;-75
2023/04/25 06:29:40;;;;;;;22.93;5.10;;;8.60;99.90;;;;;;5009303;28;20447;-74
2023/04/25 06:32:08;;;;;;;4.13;3.30;;;8.70;99.90;;;;;;4999076;28;20544;-75
2023/04/25 06:34:43;;;;;;;5.47;3.03;;;9.00;99.90;;;;;;5005689;28;20970;-76
2023/04/25 06:37:11;;;;;;;4.40;3.20;;;9.20;99.90;;;;;;5004209;28;20973;-75
2023/04/25 06:39:39;;;;;;;10.90;2.77;;;9.40;99.90;;;;;;5019674;28;20512;-76
2023/04/25 06:42:06;;;;;;;6.33;3.20;;;9.50;99.90;;;;;;4978457;28;20748;-75
2023/04/25 06:44:33;;;;;;;15.83;2.63;;;9.80;99.90;;;;;;5002073;28;20462;-74
2023/04/25 06:47:02;;;;;;;3.27;2.97;;;9.40;99.90;;;;;;5005961;28;20461;-72
2023/04/25 06:49:30;;;;;;;2.33;2.00;;;9.30;99.90;;;;;;5003859;28;20504;-77
2023/04/25 06:51:56;;;;;;;5.00;2.70;;;9.30;99.90;;;;;;5015384;28;20489;-75
2023/04/25 06:54:24;;;;;;;12.53;3.33;;;9.40;99.90;;;;;;5013776;28;20469;-75
2023/04/25 06:56:52;;;;;;;2.53;2.30;;;9.60;99.90;;;;;;5006263;28;20436;-75
2023/04/25 06:59:19;;;;;;;4.47;3.00;;;9.50;99.90;;;;;;5004637;28;20645;-74
2023/04/25 07:01:49;;;;;;;3.30;2.03;;;9.60;99.90;;;;;;5011384;28;20437;-73
2023/04/25 07:04:17;;;;;;;8.00;3.70;;;9.90;99.90;;;;;;5009057;28;20591;-74
2023/04/25 07:06:44;;;;;;;9.40;2.60;;;9.60;99.90;;;;;;5008661;28;20466;-73
2023/04/25 07:09:11;;;;;;;10.33;3.97;;;9.60;99.90;;;;;;5001721;28;20456;-74
2023/04/25 07:11:39;;;;;;;12.33;3.10;;;9.80;99.90;;;;;;5007623;28;21124;-73
2023/04/25 07:14:06;;;;;;;10.93;2.60;;;9.50;99.90;;;;;;5013930;28;20477;-73
2023/04/25 07:16:33;;;;;;;7.33;2.70;;;9.50;99.90;;;;;;5007499;28;20444;-74
2023/04/25 07:19:01;;;;;;;3.60;2.10;;;9.30;99.90;;;;;;5000127;28;20453;-74
2023/04/25 07:21:31;;;;;;;14.63;2.47;;;9.30;99.90;;;;;;4998825;28;20465;-75
2023/04/25 07:24:00;;;;;;;11.97;2.33;;;9.50;99.90;;;;;;4986545;28;20470;-75
2023/04/25 07:26:27;;;;;;;13.23;4.03;;;9.60;99.90;;;;;;5000640;28;20552;-75
2023/04/25 07:28:54;;;;;;;4.17;3.60;;;9.70;99.90;;;;;;5007799;28;20991;-75
2023/04/25 07:31:22;;;;;;;4.60;3.10;;;9.90;99.90;;;;;;5008243;28;20481;-74
2023/04/25 07:33:49;;;;;;;3.27;2.60;;;10.50;99.90;;;;;;5002092;28;20558;-75
2023/04/25 07:36:19;;;;;;;4.07;2.60;;;10.70;99.90;;;;;;4996590;28;20999;-75
2023/04/25 07:38:53;;;;;;;3.40;2.73;;;10.70;99.90;;;;;;5004817;28;20479;-75
2023/04/25 07:41:23;;;;;;;3.10;2.33;;;10.60;99.90;;;;;;5000841;28;20527;-75
2023/04/25 07:43:50;;;;;;;3.60;2.00;;;10.60;99.90;;;;;;4977524;28;20473;-75
2023/04/25 07:46:17;;;;;;;4.73;2.43;;;10.40;99.90;;;;;;4997956;28;21088;-74
2023/04/25 07:48:46;;;;;;;2.83;2.30;;;10.30;99.90;;;;;;5000896;28;20444;-75
2023/04/25 07:51:14;;;;;;;2.10;1.63;;;10.10;99.90;;;;;;5004485;28;21049;-75
2023/04/25 07:53:42;;;;;;;13.83;2.27;;;10.10;99.90;;;;;;5007262;28;20564;-75
2023/04/25 07:56:10;;;;;;;4.67;1.63;;;10.40;99.90;;;;;;5016647;28;20698;-75
2023/04/25 07:58:37;;;;;;;9.87;2.63;;;10.70;99.90;;;;;;5014684;28;20450;-76
2023/04/25 08:01:04;;;;;;;1.97;1.77;;;10.70;99.90;;;;;;5017814;28;21191;-72
2023/04/25 08:03:31;;;;;;;7.50;2.73;;;10.80;99.90;;;;;;5002186;28;20507;-75
2023/04/25 08:05:58;;;;;;;6.43;3.33;;;10.90;99.90;;;;;;5007516;28;21025;-76
2023/04/25 08:08:29;;;;;;;4.70;2.00;;;10.80;99.90;;;;;;4996133;28;20461;-75
2023/04/25 08:10:56;;;;;;;11.20;1.70;;;11.10;99.90;;;;;;5003196;28;21236;-74
2023/04/25 08:13:27;;;;;;;3.13;1.70;;;11.20;99.90;;;;;;5010856;28;20560;-75
2023/04/25 08:15:57;;;;;;;2.13;1.87;;;11.20;99.90;;;;;;5007483;28;20548;-74
2023/04/25 08:18:24;;;;;;;3.30;1.90;;;12.20;99.90;;;;;;5017358;28;20495;-75
2023/04/25 08:20:54;;;;;;;4.20;2.03;;;13.50;99.90;;;;;;5020191;28;20539;-76
2023/04/25 08:23:26;;;;;;;4.43;1.80;;;14.60;99.90;;;;;;5007265;28;20492;-74
2023/04/25 08:25:53;;;;;;;4.10;2.80;;;15.00;99.90;;;;;;5008368;28;20866;-75
2023/04/25 08:28:24;;;;;;;1.50;1.17;;;15.00;99.90;;;;;;5004668;28;20993;-74
2023/04/25 08:30:51;;;;;;;1.33;1.20;;;14.70;99.90;;;;;;5001312;28;20490;-75
2023/04/25 08:33:18;;;;;;;9.07;2.27;;;14.30;99.90;;;;;;5005765;28;20546;-75
2023/04/25 08:35:48;;;;;;;3.40;1.50;;;13.90;99.90;;;;;;5003453;28;20602;-74
2023/04/25 08:38:15;;;;;;;3.30;1.93;;;13.70;99.90;;;;;;5004954;28;20465;-75
2023/04/25 08:40:45;;;;;;;5.70;3.93;;;12.80;99.90;;;;;;4999763;28;20539;-74
2023/04/25 08:43:15;;;;;;;3.60;2.30;;;12.40;99.90;;;;;;5005283;28;20555;-75
2023/04/25 08:45:43;;;;;;;7.43;3.10;;;12.30;99.90;;;;;;5006934;28;20564;-75
2023/04/25 08:48:12;;;;;;;14.40;3.20;;;12.00;99.90;;;;;;5005887;28;20857;-75
2023/04/25 08:50:41;;;;;;;5.07;2.03;;;12.10;99.90;;;;;;5015594;28;20515;-76
2023/04/25 08:53:12;;;;;;;5.60;2.67;;;12.40;99.90;;;;;;5023604;28;20469;-73
2023/04/25 08:55:43;;;;;;;2.90;1.60;;;12.60;99.90;;;;;;5017816;28;20453;-75
2023/04/25 08:58:11;;;;;;;1.73;1.40;;;12.80;99.90;;;;;;5016300;28;20504;-73
2023/04/25 09:00:39;;;;;;;3.67;2.03;;;13.00;99.90;;;;;;5021866;28;20457;-76
2023/04/25 09:03:08;;;;;;;9.20;1.73;;;13.60;99.90;;;;;;5006013;28;20503;-73
2023/04/25 09:05:36;;;;;;;2.30;2.03;;;14.30;99.90;;;;;;5005164;28;20496;-76
2023/04/25 09:08:05;;;;;;;3.60;1.77;;;13.90;99.90;;;;;;5011649;28;20468;-76
2023/04/25 09:10:34;;;;;;;8.30;1.63;;;14.10;99.90;;;;;;5014027;28;20472;-75
2023/04/25 09:13:12;;;;;;;5.20;1.90;;;14.20;99.90;;;;;;5002229;28;20529;-75
2023/04/25 09:15:51;;;;;;;4.43;1.90;;;14.00;99.90;;;;;;5006074;28;20810;-75
2023/04/25 09:18:34;;;;;;;6.03;2.63;;;13.50;99.90;;;;;;5021839;28;20469;-77
2023/04/25 09:21:07;;;;;;;2.13;1.93;;;12.80;99.90;;;;;;4999053;28;20465;-74
2023/04/25 09:23:45;;;;;;;17.30;2.37;;;12.20;99.90;;;;;;5000453;28;20860;-76
2023/04/25 09:26:16;;;;;;;2.20;1.87;;;12.10;99.90;;;;;;5004872;28;20461;-77
2023/04/25 09:28:43;;;;;;;3.00;1.57;;;11.70;99.90;;;;;;4987670;28;20545;-75
2023/04/25 09:31:11;;;;;;;8.03;2.50;;;11.50;99.90;;;;;;5005595;28;20969;-76
2023/04/25 09:33:41;;;;;;;4.13;1.80;;;11.30;99.90;;;;;;5006279;28;20448;-76
2023/04/25 09:36:10;;;;;;;7.40;2.20;;;11.30;99.90;;;;;;5001976;28;20462;-75
2023/04/25 09:38:44;;;;;;;1.80;1.40;;;11.60;99.90;;;;;;4999126;28;20961;-74
2023/04/25 09:41:13;;;;;;;3.30;1.80;;;11.90;99.90;;;;;;5005370;28;20906;-73
2023/04/25 09:43:40;;;;;;;5.47;2.23;;;12.60;99.90;;;;;;5007527;28;20505;-72
2023/04/25 09:46:10;;;;;;;3.47;1.50;;;13.50;99.90;;;;;;5002360;28;20484;-74
2023/04/25 09:48:38;;;;;;;2.03;1.30;;;13.80;99.90;;;;;;4999085;28;20536;-74
2023/04/25 09:51:08;;;;;;;4.20;1.23;;;13.70;99.90;;;;;;5011149;28;20488;-74
2023/04/25 09:53:36;;;;;;;2.73;1.47;;;14.10;99.90;;;;;;5000364;28;20477;-74
2023/04/25 09:56:06;;;;;;;3.83;1.20;;;14.10;99.90;;;;;;4999153;28;20481;-74
2023/04/25 09:58:39;;;;;;;2.77;1.60;;;14.70;99.90;;;;;;4968779;28;20452;-75
2023/04/25 10:01:07;;;;;;;1.23;0.90;;;15.00;98.50;;;;;;5000471;28;20783;-75
2023/04/25 10:03:41;;;;;;;5.17;2.33;;;14.70;98.10;;;;;;5019070;28;20483;-75
2023/04/25 10:06:15;;;;;;;3.10;1.90;;;15.60;99.40;;;;;;5004937;28;20457;-75
2023/04/25 10:08:44;;;;;;;3.70;1.63;;;15.80;96.60;;;;;;4963099;28;20548;-75
2023/04/25 10:11:15;;;;;;;8.83;2.20;;;15.30;95.70;;;;;;5004675;28;20489;-75
2023/04/25 10:13:43;;;;;;;2.00;1.37;;;14.80;97.50;;;;;;5002125;28;20481;-75
2023/04/25 10:16:11;;;;;;;5.40;1.80;;;14.90;96.80;;;;;;5017660;28;20457;-74
2023/04/25 10:18:41;;;;;;;2.57;1.90;;;14.60;95.90;;;;;;4962226;28;20465;-75
2023/04/25 10:21:09;;;;;;;7.63;1.67;;;14.60;96.60;;;;;;5005764;28;20540;-74
2023/04/25 10:23:39;;;;;;;2.37;1.20;;;14.20;96.70;;;;;;5003331;28;20571;-75
2023/04/25 10:26:07;;;;;;;1.87;1.27;;;14.80;95.90;;;;;;5008775;28;20465;-74
2023/04/25 10:28:56;;;;;;;3.80;1.67;;;14.60;96.70;;;;;;5010940;28;20604;-72
2023/04/25 10:31:23;;;;;;;2.23;1.47;;;14.10;95.80;;;;;;5003461;28;20982;-73
2023/04/25 10:33:50;;;;;;;4.07;1.67;;;13.60;96.20;;;;;;5010118;28;20506;-74
2023/04/25 10:36:22;;;;;;;1.83;1.30;;;13.00;98.20;;;;;;5007387;28;20517;-75
2023/04/25 10:38:52;;;;;;;16.67;2.50;;;12.70;99.30;;;;;;5003931;28;20510;-75
2023/04/25 10:41:21;;;;;;;3.40;1.50;;;12.40;99.50;;;;;;5010093;28;20457;-74
2023/04/25 10:43:48;;;;;;;3.10;2.13;;;12.30;99.20;;;;;;4969700;28;20490;-74
2023/04/25 10:46:17;;;;;;;2.40;1.43;;;11.90;99.70;;;;;;4999555;28;20464;-75
2023/04/25 10:48:49;;;;;;;1.60;1.23;;;11.20;98.90;;;;;;5021337;28;20472;-75
2023/04/25 10:51:26;;;;;;;1.20;0.90;;;10.70;99.90;;;;;;5000220;28;20480;-74
2023/04/25 10:54:01;;;;;;;2.50;1.10;;;10.80;99.90;;;;;;4987812;28;20508;-75
2023/04/25 10:56:32;;;;;;;4.30;1.57;;;10.80;99.90;;;;;;5007133;28;20416;-74
2023/04/25 10:59:09;;;;;;;2.20;1.53;;;11.00;99.90;;;;;;4998398;28;20553;-74
2023/04/25 11:01:38;;;;;;;8.10;1.60;;;10.90;99.90;;;;;;4997582;28;20461;-73
2023/04/25 11:04:06;;;;;;;2.20;1.07;;;10.80;99.90;;;;;;4997781;28;20995;-73
2023/04/25 11:06:47;;;;;;;1.70;1.60;;;10.90;99.90;;;;;;5001120;28;20457;-76
2023/04/25 11:09:14;;;;;;;1.60;1.47;;;10.80;99.90;;;;;;5002421;28;20925;-74
2023/04/25 11:11:42;;;;;;;5.50;1.50;;;10.80;99.90;;;;;;4997959;28;20477;-75
2023/04/25 11:14:09;;;;;;;1.63;1.53;;;10.90;99.90;;;;;;5001198;28;20517;-71
2023/04/25 11:16:37;;;;;;;1.93;1.50;;;11.10;99.90;;;;;;5007555;28;20469;-74
2023/04/25 11:19:04;;;;;;;3.00;1.53;;;11.20;99.90;;;;;;5004200;28;20495;-73
2023/04/25 11:21:32;;;;;;;3.20;1.10;;;11.30;99.90;;;;;;5004235;28;20465;-74
2023/04/25 11:24:01;;;;;;;6.70;1.30;;;11.30;99.90;;;;;;5012180;28;20471;-72
2023/04/25 11:26:28;;;;;;;3.83;1.37;;;11.50;99.90;;;;;;5006200;28;20471;-74
2023/04/25 11:28:59;;;;;;;3.67;1.90;;;11.90;99.90;;;;;;5003253;28;20502;-75
2023/04/25 11:31:27;;;;;;;1.50;1.07;;;12.40;99.90;;;;;;5000566;28;20469;-75
2023/04/25 11:33:55;;;;;;;5.10;1.67;;;12.80;99.90;;;;;;5001407;28;20484;-75
2023/04/25 11:36:24;;;;;;;1.20;1.00;;;13.10;99.90;;;;;;5003789;28;20462;-76
2023/04/25 11:38:52;;;;;;;1.70;1.00;;;13.80;99.90;;;;;;4949568;28;21107;-76
2023/04/25 11:41:22;;;;;;;1.80;1.07;;;15.40;99.60;;;;;;5001548;28;20465;-76
2023/04/25 11:43:51;;;;;;;2.60;1.23;;;16.00;96.90;;;;;;5001170;28;20477;-76
2023/04/25 11:46:20;;;;;;;4.93;1.40;;;16.40;95.80;;;;;;4997179;28;20505;-75
2023/04/25 11:48:47;;;;;;;1.13;0.80;;;15.40;94.00;;;;;;4971579;28;20874;-76
2023/04/25 11:51:16;;;;;;;1.20;0.87;;;14.90;86.70;;;;;;5006425;28;20592;-76
2023/04/25 11:53:47;;;;;;;1.20;1.03;;;15.90;90.20;;;;;;5000637;28;20559;-75
2023/04/25 11:56:16;;;;;;;2.77;1.10;;;17.30;86.50;;;;;;4999885;28;20461;-76
2023/04/25 11:59:01;;;;;;;1.10;0.80;;;17.50;84.20;;;;;;5009025;28;20512;-72
2023/04/25 12:01:30;;;;;;;2.60;1.20;;;18.30;77.10;;;;;;4992931;28;20460;-75
2023/04/25 12:04:11;;;;;;;4.33;1.10;;;18.80;76.60;;;;;;4995827;28;20485;-75
2023/04/25 12:06:43;;;;;;;3.10;1.10;;;18.80;76.80;;;;;;4969320;28;20454;-76
2023/04/25 12:09:18;;;;;;;2.00;1.07;;;18.80;77.30;;;;;;5008249;28;20453;-75
2023/04/25 12:11:50;;;;;;;10.20;1.33;;;19.50;72.90;;;;;;5006816;28;20607;-75
2023/04/25 12:14:26;;;;;;;2.80;2.27;;;20.10;70.70;;;;;;5020989;28;20485;-73
2023/04/25 12:16:57;;;;;;;3.83;1.33;;;19.70;67.40;;;;;;5016550;28;20460;-75
2023/04/25 12:19:24;;;;;;;1.20;0.80;;;18.30;70.50;;;;;;5003854;28;20462;-75
2023/04/25 12:21:51;;;;;;;2.80;1.10;;;18.80;71.90;;;;;;5003451;28;20512;-73
2023/04/25 12:24:25;;;;;;;1.50;0.93;;;19.30;73.10;;;;;;5001301;28;20564;-75
2023/04/25 12:26:54;;;;;;;3.50;1.23;;;18.20;72.90;;;;;;5007831;28;20551;-75
2023/04/25 12:29:23;;;;;;;1.10;0.70;;;16.10;76.30;;;;;;5002338;28;20457;-74
2023/04/25 12:31:53;;;;;;;2.03;1.10;;;15.60;78.90;;;;;;5001842;28;20458;-74
2023/04/25 12:34:20;;;;;;;1.80;1.00;;;15.10;80.60;;;;;;5013869;28;20488;-73
2023/04/25 12:36:51;;;;;;;1.20;0.90;;;14.70;78.80;;;;;;5003768;28;20465;-75
2023/04/25 12:39:19;;;;;;;1.87;1.33;;;14.60;78.40;;;;;;4962187;28;20568;-74
2023/04/25 12:41:46;;;;;;;1.17;0.90;;;14.20;75.30;;;;;;5005015;28;20471;-72
2023/04/25 12:44:14;;;;;;;2.07;1.20;;;13.80;74.60;;;;;;5015199;28;20500;-76
2023/04/25 12:46:41;;;;;;;1.83;1.20;;;13.90;75.60;;;;;;5012162;28;20849;-75
2023/04/25 12:49:11;;;;;;;2.43;1.37;;;14.10;75.50;;;;;;5003478;28;20537;-73
2023/04/25 12:51:39;;;;;;;1.60;1.20;;;13.90;77.10;;;;;;5008026;28;20465;-76
2023/04/25 12:54:08;;;;;;;2.90;1.00;;;14.20;78.20;;;;;;5014105;28;20496;-74
2023/04/25 12:56:37;;;;;;;2.60;0.83;;;14.00;77.10;;;;;;4989473;28;20463;-75
2023/04/25 12:59:05;;;;;;;4.27;1.10;;;13.50;77.50;;;;;;5015839;28;20465;-77
2023/04/25 13:01:33;;;;;;;6.03;1.00;;;13.10;79.40;;;;;;5014767;28;20469;-75
2023/04/25 13:04:01;;;;;;;2.33;0.80;;;13.10;80.70;;;;;;5000614;28;20473;-76
2023/04/25 13:06:30;;;;;;;1.97;0.80;;;13.10;81.60;;;;;;5003269;28;20489;-76
2023/04/25 13:08:57;;;;;;;1.97;0.90;;;13.10;81.00;;;;;;4988405;28;20514;-75